sensor_id;sensor_type;location;lat;lon;timestamp;temperature;humidity
10431;DHT22;5262;59.958;17.726;2023-01-28T00:01:14;-2.70;99.90
10431;DHT22;5262;59.958;17.726;2023-01-28T00:03:41;-2.60;99.90
10431;DHT22;5262;59.958;17.726;2023-01-28T00:06:10;-2.60;99.90
10431;DHT22;5262;59.958;17.726;2023-01-28T00:08:36;-2.60;99.90
10431;DHT22;5262;59.958;17.726;2023-01-28T00:11:04;-2.60;99.90
10431;DHT22;5262;59.958;17.726;2023-01-28T00:13:31;-2.60;99.90
10431;DHT22;5262;59.958;17.726;2023-01-28T00:16:00;-2.50;99.90
10431;DHT22;5262;59.958;17.726;2023-01-28T00:18:26;-2.50;99.90
10431;DHT22;5262;59.958;17.726;2023-01-28T00:21:08;-2.50;99.90
10431;DHT22;5262;59.958;17.726;2023-01-28T00:23:36;-2.50;99.90
10431;DHT22;5262;59.958;17.726;2023-01-28T00:26:07;-2.40;99.90
10431;DHT22;5262;59.958;17.726;2023-01-28T00:28:34;-2.40;99.90
10431;DHT22;5262;59.958;17.726;2023-01-28T00:31:07;-2.30;99.90
10431;DHT22;5262;59.958;17.726;2023-01-28T00:33:34;-2.30;99.90
10431;DHT22;5262;59.958;17.726;2023-01-28T00:36:01;-2.20;99.90
10431;DHT22;5262;59.958;17.726;2023-01-28T00:38:28;-2.20;99.90
10431;DHT22;5262;59.958;17.726;2023-01-28T00:40:54;-2.20;99.90
10431;DHT22;5262;59.958;17.726;2023-01-28T00:43:19;-2.20;99.90
10431;DHT22;5262;59.958;17.726;2023-01-28T00:45:45;-2.10;99.90
10431;DHT22;5262;59.958;17.726;2023-01-28T00:48:11;-2.00;99.90
10431;DHT22;5262;59.958;17.726;2023-01-28T00:50:36;-2.10;99.90
10431;DHT22;5262;59.958;17.726;2023-01-28T00:53:03;-2.10;99.90
10431;DHT22;5262;59.958;17.726;2023-01-28T00:55:29;-2.00;99.90
10431;DHT22;5262;59.958;17.726;2023-01-28T00:57:55;-2.10;99.90
10431;DHT22;5262;59.958;17.726;2023-01-28T01:00:20;-2.00;99.90
10431;DHT22;5262;59.958;17.726;2023-01-28T01:02:50;-2.00;99.90
10431;DHT22;5262;59.958;17.726;2023-01-28T01:05:16;-1.90;99.90
10431;DHT22;5262;59.958;17.726;2023-01-28T01:07:42;-1.90;99.90
10431;DHT22;5262;59.958;17.726;2023-01-28T01:10:16;-1.90;99.90
10431;DHT22;5262;59.958;17.726;2023-01-28T01:12:42;-1.80;99.90
10431;DHT22;5262;59.958;17.726;2023-01-28T01:15:09;-1.80;99.90
10431;DHT22;5262;59.958;17.726;2023-01-28T01:17:36;-1.80;99.90
10431;DHT22;5262;59.958;17.726;2023-01-28T01:20:03;-1.80;99.90
10431;DHT22;5262;59.958;17.726;2023-01-28T01:22:32;-1.70;99.90
10431;DHT22;5262;59.958;17.726;2023-01-28T01:24:58;-1.70;99.90
10431;DHT22;5262;59.958;17.726;2023-01-28T01:27:23;-1.70;99.90
10431;DHT22;5262;59.958;17.726;2023-01-28T01:29:49;-1.60;99.90
10431;DHT22;5262;59.958;17.726;2023-01-28T01:32:15;-1.50;99.90
10431;DHT22;5262;59.958;17.726;2023-01-28T01:34:40;-1.50;99.90
10431;DHT22;5262;59.958;17.726;2023-01-28T01:37:06;-1.40;99.90
10431;DHT22;5262;59.958;17.726;2023-01-28T01:39:33;-1.40;99.90
10431;DHT22;5262;59.958;17.726;2023-01-28T01:41:59;-1.30;99.90
10431;DHT22;5262;59.958;17.726;2023-01-28T01:47:40;-1.30;99.90
10431;DHT22;5262;59.958;17.726;2023-01-28T01:50:20;-1.20;99.90
10431;DHT22;5262;59.958;17.726;2023-01-28T01:52:48;-1.20;99.90
10431;DHT22;5262;59.958;17.726;2023-01-28T01:55:18;-1.10;99.90
10431;DHT22;5262;59.958;17.726;2023-01-28T01:57:47;-1.10;99.90
10431;DHT22;5262;59.958;17.726;2023-01-28T02:00:14;-1.00;99.90
10431;DHT22;5262;59.958;17.726;2023-01-28T02:02:43;-1.00;99.90
10431;DHT22;5262;59.958;17.726;2023-01-28T02:05:11;-0.90;99.90
10431;DHT22;5262;59.958;17.726;2023-01-28T02:07:38;-0.90;99.90
10431;DHT22;5262;59.958;17.726;2023-01-28T02:10:05;-0.80;99.90
10431;DHT22;5262;59.958;17.726;2023-01-28T02:12:38;-0.80;99.90
10431;DHT22;5262;59.958;17.726;2023-01-28T02:15:19;-0.80;99.90
10431;DHT22;5262;59.958;17.726;2023-01-28T02:17:45;-0.80;99.90
10431;DHT22;5262;59.958;17.726;2023-01-28T02:20:16;-0.80;99.90
10431;DHT22;5262;59.958;17.726;2023-01-28T02:31:22;-0.80;99.90
10431;DHT22;5262;59.958;17.726;2023-01-28T02:34:02;-0.80;99.90
10431;DHT22;5262;59.958;17.726;2023-01-28T02:36:59;-0.70;99.90
10431;DHT22;5262;59.958;17.726;2023-01-28T02:39:30;-0.70;99.90
10431;DHT22;5262;59.958;17.726;2023-01-28T02:42:03;-0.70;99.90
10431;DHT22;5262;59.958;17.726;2023-01-28T02:44:30;-0.70;99.90
10431;DHT22;5262;59.958;17.726;2023-01-28T02:46:56;-0.60;99.90
10431;DHT22;5262;59.958;17.726;2023-01-28T02:49:52;-0.60;99.90
10431;DHT22;5262;59.958;17.726;2023-01-28T02:52:50;-0.60;99.90
10431;DHT22;5262;59.958;17.726;2023-01-28T02:55:51;-0.60;99.90
10431;DHT22;5262;59.958;17.726;2023-01-28T03:01:09;-0.50;99.90
10431;DHT22;5262;59.958;17.726;2023-01-28T03:03:43;-0.60;99.90
10431;DHT22;5262;59.958;17.726;2023-01-28T03:06:13;-0.50;99.90
10431;DHT22;5262;59.958;17.726;2023-01-28T03:08:49;-0.50;99.90
10431;DHT22;5262;59.958;17.726;2023-01-28T03:11:38;-0.50;99.90
10431;DHT22;5262;59.958;17.726;2023-01-28T03:14:24;-0.40;99.90
10431;DHT22;5262;59.958;17.726;2023-01-28T03:17:20;-0.40;99.90
10431;DHT22;5262;59.958;17.726;2023-01-28T03:20:07;-0.40;99.90
10431;DHT22;5262;59.958;17.726;2023-01-28T03:22:54;-0.40;99.90
10431;DHT22;5262;59.958;17.726;2023-01-28T03:25:42;-0.40;99.90
10431;DHT22;5262;59.958;17.726;2023-01-28T03:28:28;-0.40;99.90
10431;DHT22;5262;59.958;17.726;2023-01-28T03:31:16;-0.40;99.90
10431;DHT22;5262;59.958;17.726;2023-01-28T03:34:03;-0.40;99.90
10431;DHT22;5262;59.958;17.726;2023-01-28T03:36:49;-0.40;99.90
10431;DHT22;5262;59.958;17.726;2023-01-28T03:39:16;-0.40;99.90
10431;DHT22;5262;59.958;17.726;2023-01-28T03:41:55;-0.30;99.90
10431;DHT22;5262;59.958;17.726;2023-01-28T03:44:22;-0.30;99.90
10431;DHT22;5262;59.958;17.726;2023-01-28T03:47:07;-0.30;99.90
10431;DHT22;5262;59.958;17.726;2023-01-28T03:49:33;-0.30;99.90
10431;DHT22;5262;59.958;17.726;2023-01-28T03:51:59;-0.40;99.90
10431;DHT22;5262;59.958;17.726;2023-01-28T03:54:24;-0.30;99.90
10431;DHT22;5262;59.958;17.726;2023-01-28T03:56:50;-0.30;99.90
10431;DHT22;5262;59.958;17.726;2023-01-28T03:59:16;-0.30;99.90
10431;DHT22;5262;59.958;17.726;2023-01-28T04:01:41;-0.30;99.90
10431;DHT22;5262;59.958;17.726;2023-01-28T04:04:07;-0.30;99.90
10431;DHT22;5262;59.958;17.726;2023-01-28T04:06:34;-0.30;99.90
10431;DHT22;5262;59.958;17.726;2023-01-28T04:09:00;-0.20;99.90
10431;DHT22;5262;59.958;17.726;2023-01-28T04:11:29;-0.20;99.90
10431;DHT22;5262;59.958;17.726;2023-01-28T04:13:55;-0.30;99.90
10431;DHT22;5262;59.958;17.726;2023-01-28T04:16:21;-0.30;99.90
10431;DHT22;5262;59.958;17.726;2023-01-28T04:18:47;-0.20;99.90
10431;DHT22;5262;59.958;17.726;2023-01-28T04:21:12;-0.20;99.90
10431;DHT22;5262;59.958;17.726;2023-01-28T04:23:38;-0.20;99.90
10431;DHT22;5262;59.958;17.726;2023-01-28T04:26:04;-0.20;99.90
10431;DHT22;5262;59.958;17.726;2023-01-28T04:28:30;-0.20;99.90
10431;DHT22;5262;59.958;17.726;2023-01-28T04:30:55;-0.20;99.90
10431;DHT22;5262;59.958;17.726;2023-01-28T04:33:21;-0.20;99.90
10431;DHT22;5262;59.958;17.726;2023-01-28T04:35:47;-0.20;99.90
10431;DHT22;5262;59.958;17.726;2023-01-28T04:38:13;-0.20;99.90
10431;DHT22;5262;59.958;17.726;2023-01-28T04:40:38;-0.20;99.90
10431;DHT22;5262;59.958;17.726;2023-01-28T04:43:04;-0.20;99.90
10431;DHT22;5262;59.958;17.726;2023-01-28T04:45:31;-0.20;99.90
10431;DHT22;5262;59.958;17.726;2023-01-28T04:47:56;-0.20;99.90
10431;DHT22;5262;59.958;17.726;2023-01-28T04:50:22;-0.20;99.90
10431;DHT22;5262;59.958;17.726;2023-01-28T04:52:48;-0.20;99.90
10431;DHT22;5262;59.958;17.726;2023-01-28T04:55:13;-0.20;99.90
10431;DHT22;5262;59.958;17.726;2023-01-28T04:57:39;-0.20;99.90
10431;DHT22;5262;59.958;17.726;2023-01-28T05:00:05;-0.20;99.90
10431;DHT22;5262;59.958;17.726;2023-01-28T05:02:31;-0.20;99.90
10431;DHT22;5262;59.958;17.726;2023-01-28T05:04:56;-0.20;99.90
10431;DHT22;5262;59.958;17.726;2023-01-28T05:07:22;-0.20;99.90
10431;DHT22;5262;59.958;17.726;2023-01-28T05:09:48;-0.10;99.90
10431;DHT22;5262;59.958;17.726;2023-01-28T05:12:13;-0.10;99.90
10431;DHT22;5262;59.958;17.726;2023-01-28T05:14:39;-0.20;99.90
10431;DHT22;5262;59.958;17.726;2023-01-28T05:17:04;-0.10;99.90
10431;DHT22;5262;59.958;17.726;2023-01-28T05:19:30;-0.10;99.90
10431;DHT22;5262;59.958;17.726;2023-01-28T05:21:56;-0.10;99.90
10431;DHT22;5262;59.958;17.726;2023-01-28T05:24:21;-0.10;99.90
10431;DHT22;5262;59.958;17.726;2023-01-28T05:26:47;-0.10;99.90
10431;DHT22;5262;59.958;17.726;2023-01-28T05:29:13;-0.10;99.90
10431;DHT22;5262;59.958;17.726;2023-01-28T05:31:38;-0.10;99.90
10431;DHT22;5262;59.958;17.726;2023-01-28T05:34:04;-0.10;99.90
10431;DHT22;5262;59.958;17.726;2023-01-28T05:36:29;-0.10;99.90
10431;DHT22;5262;59.958;17.726;2023-01-28T05:38:55;-0.10;99.90
10431;DHT22;5262;59.958;17.726;2023-01-28T05:41:21;-0.10;99.90
10431;DHT22;5262;59.958;17.726;2023-01-28T05:43:46;-0.10;99.90
10431;DHT22;5262;59.958;17.726;2023-01-28T05:46:12;-0.10;99.90
10431;DHT22;5262;59.958;17.726;2023-01-28T05:48:38;-0.10;99.90
10431;DHT22;5262;59.958;17.726;2023-01-28T05:51:03;0.00;99.90
10431;DHT22;5262;59.958;17.726;2023-01-28T05:53:30;0.00;99.90
10431;DHT22;5262;59.958;17.726;2023-01-28T05:55:56;0.00;99.90
10431;DHT22;5262;59.958;17.726;2023-01-28T05:58:22;0.00;99.90
10431;DHT22;5262;59.958;17.726;2023-01-28T06:00:47;0.00;99.90
10431;DHT22;5262;59.958;17.726;2023-01-28T06:03:13;0.00;99.90
10431;DHT22;5262;59.958;17.726;2023-01-28T06:05:39;0.00;99.90
10431;DHT22;5262;59.958;17.726;2023-01-28T06:08:05;0.00;99.90
10431;DHT22;5262;59.958;17.726;2023-01-28T06:10:30;0.00;99.90
10431;DHT22;5262;59.958;17.726;2023-01-28T06:12:56;0.00;99.90
10431;DHT22;5262;59.958;17.726;2023-01-28T06:15:22;0.10;99.90
10431;DHT22;5262;59.958;17.726;2023-01-28T06:17:47;0.10;99.90
10431;DHT22;5262;59.958;17.726;2023-01-28T06:20:13;0.10;99.90
10431;DHT22;5262;59.958;17.726;2023-01-28T06:22:39;0.10;99.90
10431;DHT22;5262;59.958;17.726;2023-01-28T06:25:05;0.10;99.90
10431;DHT22;5262;59.958;17.726;2023-01-28T06:27:31;0.10;99.90
10431;DHT22;5262;59.958;17.726;2023-01-28T06:29:56;0.10;99.90
10431;DHT22;5262;59.958;17.726;2023-01-28T06:32:22;0.20;99.90
10431;DHT22;5262;59.958;17.726;2023-01-28T06:34:47;0.20;99.90
10431;DHT22;5262;59.958;17.726;2023-01-28T06:37:13;0.20;99.90
10431;DHT22;5262;59.958;17.726;2023-01-28T06:39:39;0.20;99.90
10431;DHT22;5262;59.958;17.726;2023-01-28T06:42:05;0.20;99.90
10431;DHT22;5262;59.958;17.726;2023-01-28T06:44:31;0.20;99.90
10431;DHT22;5262;59.958;17.726;2023-01-28T06:46:57;0.20;99.90
10431;DHT22;5262;59.958;17.726;2023-01-28T06:49:23;0.20;99.90
10431;DHT22;5262;59.958;17.726;2023-01-28T06:51:48;0.20;99.90
10431;DHT22;5262;59.958;17.726;2023-01-28T06:54:14;0.30;99.90
10431;DHT22;5262;59.958;17.726;2023-01-28T06:56:40;0.30;99.90
10431;DHT22;5262;59.958;17.726;2023-01-28T06:59:05;0.30;99.90
10431;DHT22;5262;59.958;17.726;2023-01-28T07:01:31;0.30;99.90
10431;DHT22;5262;59.958;17.726;2023-01-28T07:03:57;0.30;99.90
10431;DHT22;5262;59.958;17.726;2023-01-28T07:06:23;0.30;99.90
10431;DHT22;5262;59.958;17.726;2023-01-28T07:08:48;0.30;99.90
10431;DHT22;5262;59.958;17.726;2023-01-28T07:11:15;0.30;99.90
10431;DHT22;5262;59.958;17.726;2023-01-28T07:13:40;0.30;99.90
10431;DHT22;5262;59.958;17.726;2023-01-28T07:16:06;0.30;99.90
10431;DHT22;5262;59.958;17.726;2023-01-28T07:18:32;0.40;99.90
10431;DHT22;5262;59.958;17.726;2023-01-28T07:20:58;0.40;99.90
10431;DHT22;5262;59.958;17.726;2023-01-28T07:23:24;0.40;99.90
10431;DHT22;5262;59.958;17.726;2023-01-28T07:25:50;0.40;99.90
10431;DHT22;5262;59.958;17.726;2023-01-28T07:28:15;0.40;99.90
10431;DHT22;5262;59.958;17.726;2023-01-28T07:30:49;0.40;99.90
10431;DHT22;5262;59.958;17.726;2023-01-28T07:33:15;0.40;99.90
10431;DHT22;5262;59.958;17.726;2023-01-28T07:35:41;0.40;99.90
10431;DHT22;5262;59.958;17.726;2023-01-28T07:38:07;0.50;99.90
10431;DHT22;5262;59.958;17.726;2023-01-28T07:40:32;0.50;99.90
10431;DHT22;5262;59.958;17.726;2023-01-28T07:42:58;0.50;99.90
10431;DHT22;5262;59.958;17.726;2023-01-28T07:45:25;0.50;99.90
10431;DHT22;5262;59.958;17.726;2023-01-28T07:47:57;0.50;99.90
10431;DHT22;5262;59.958;17.726;2023-01-28T07:50:23;0.50;99.90
10431;DHT22;5262;59.958;17.726;2023-01-28T07:52:49;0.50;99.90
10431;DHT22;5262;59.958;17.726;2023-01-28T07:55:15;0.60;99.90
10431;DHT22;5262;59.958;17.726;2023-01-28T07:57:56;0.60;99.90
10431;DHT22;5262;59.958;17.726;2023-01-28T08:00:23;0.60;99.90
10431;DHT22;5262;59.958;17.726;2023-01-28T08:02:54;0.60;99.90
10431;DHT22;5262;59.958;17.726;2023-01-28T08:05:20;0.60;99.90
10431;DHT22;5262;59.958;17.726;2023-01-28T08:07:47;0.60;99.90
10431;DHT22;5262;59.958;17.726;2023-01-28T08:10:14;0.60;99.90
10431;DHT22;5262;59.958;17.726;2023-01-28T08:12:49;0.60;99.90
10431;DHT22;5262;59.958;17.726;2023-01-28T08:15:15;0.60;99.90
10431;DHT22;5262;59.958;17.726;2023-01-28T08:17:41;0.60;99.90
10431;DHT22;5262;59.958;17.726;2023-01-28T08:20:07;0.60;99.90
10431;DHT22;5262;59.958;17.726;2023-01-28T08:22:33;0.70;99.90
10431;DHT22;5262;59.958;17.726;2023-01-28T08:24:59;0.70;99.90
10431;DHT22;5262;59.958;17.726;2023-01-28T08:27:24;0.70;99.90
10431;DHT22;5262;59.958;17.726;2023-01-28T08:29:50;0.70;99.90
10431;DHT22;5262;59.958;17.726;2023-01-28T08:32:16;0.70;99.90
10431;DHT22;5262;59.958;17.726;2023-01-28T08:34:41;0.70;99.90
10431;DHT22;5262;59.958;17.726;2023-01-28T08:37:07;0.70;99.90
10431;DHT22;5262;59.958;17.726;2023-01-28T08:39:32;0.70;99.90
10431;DHT22;5262;59.958;17.726;2023-01-28T08:41:58;0.70;99.90
10431;DHT22;5262;59.958;17.726;2023-01-28T08:44:23;0.70;99.90
10431;DHT22;5262;59.958;17.726;2023-01-28T08:46:49;0.70;99.90
10431;DHT22;5262;59.958;17.726;2023-01-28T08:49:15;0.80;99.90
10431;DHT22;5262;59.958;17.726;2023-01-28T08:51:40;0.80;99.90
10431;DHT22;5262;59.958;17.726;2023-01-28T08:54:06;0.80;99.90
10431;DHT22;5262;59.958;17.726;2023-01-28T08:56:31;0.80;99.90
10431;DHT22;5262;59.958;17.726;2023-01-28T08:58:57;0.80;99.90
10431;DHT22;5262;59.958;17.726;2023-01-28T09:01:23;0.80;99.90
10431;DHT22;5262;59.958;17.726;2023-01-28T09:03:50;0.90;99.90
10431;DHT22;5262;59.958;17.726;2023-01-28T09:06:16;1.00;99.90
10431;DHT22;5262;59.958;17.726;2023-01-28T09:08:41;1.00;99.90
10431;DHT22;5262;59.958;17.726;2023-01-28T09:11:07;1.10;99.90
10431;DHT22;5262;59.958;17.726;2023-01-28T09:13:32;1.20;99.90
10431;DHT22;5262;59.958;17.726;2023-01-28T09:15:58;1.20;99.90
10431;DHT22;5262;59.958;17.726;2023-01-28T09:18:24;1.10;99.90
10431;DHT22;5262;59.958;17.726;2023-01-28T09:20:49;1.30;99.90
10431;DHT22;5262;59.958;17.726;2023-01-28T09:23:15;1.30;99.90
10431;DHT22;5262;59.958;17.726;2023-01-28T09:25:41;1.40;99.90
10431;DHT22;5262;59.958;17.726;2023-01-28T09:28:07;1.50;99.90
10431;DHT22;5262;59.958;17.726;2023-01-28T09:30:32;1.40;99.90
10431;DHT22;5262;59.958;17.726;2023-01-28T09:32:59;1.50;99.90
10431;DHT22;5262;59.958;17.726;2023-01-28T09:35:25;1.50;99.90
10431;DHT22;5262;59.958;17.726;2023-01-28T09:37:51;1.60;99.90
10431;DHT22;5262;59.958;17.726;2023-01-28T09:40:20;1.70;99.90
10431;DHT22;5262;59.958;17.726;2023-01-28T09:45:58;2.00;99.90
10431;DHT22;5262;59.958;17.726;2023-01-28T09:48:46;2.10;99.90
10431;DHT22;5262;59.958;17.726;2023-01-28T09:51:32;2.30;99.90
10431;DHT22;5262;59.958;17.726;2023-01-28T09:54:14;2.40;99.90
10431;DHT22;5262;59.958;17.726;2023-01-28T09:56:46;2.60;99.90
10431;DHT22;5262;59.958;17.726;2023-01-28T09:59:20;2.60;99.90
10431;DHT22;5262;59.958;17.726;2023-01-28T10:01:55;2.60;99.90
10431;DHT22;5262;59.958;17.726;2023-01-28T10:04:38;2.70;99.90
10431;DHT22;5262;59.958;17.726;2023-01-28T10:10:15;2.80;99.90
10431;DHT22;5262;59.958;17.726;2023-01-28T10:18:54;2.50;99.90
10431;DHT22;5262;59.958;17.726;2023-01-28T10:21:25;2.50;99.90
10431;DHT22;5262;59.958;17.726;2023-01-28T10:24:00;2.50;99.90
10431;DHT22;5262;59.958;17.726;2023-01-28T10:26:39;2.60;99.90
10431;DHT22;5262;59.958;17.726;2023-01-28T10:29:22;2.50;99.90
10431;DHT22;5262;59.958;17.726;2023-01-28T10:32:01;2.60;99.90
10431;DHT22;5262;59.958;17.726;2023-01-28T10:34:29;2.60;99.90
10431;DHT22;5262;59.958;17.726;2023-01-28T10:36:56;2.50;99.90
10431;DHT22;5262;59.958;17.726;2023-01-28T10:39:23;2.50;99.90
10431;DHT22;5262;59.958;17.726;2023-01-28T10:41:49;3.00;99.90
10431;DHT22;5262;59.958;17.726;2023-01-28T10:44:31;4.40;99.90
10431;DHT22;5262;59.958;17.726;2023-01-28T10:47:01;5.40;99.90
10431;DHT22;5262;59.958;17.726;2023-01-28T10:49:30;6.30;99.90
10431;DHT22;5262;59.958;17.726;2023-01-28T10:51:55;6.70;99.90
10431;DHT22;5262;59.958;17.726;2023-01-28T10:54:24;7.50;99.90
10431;DHT22;5262;59.958;17.726;2023-01-28T10:56:53;8.20;99.90
10431;DHT22;5262;59.958;17.726;2023-01-28T10:59:31;8.80;99.90
10431;DHT22;5262;59.958;17.726;2023-01-28T11:02:00;8.80;99.90
10431;DHT22;5262;59.958;17.726;2023-01-28T11:04:31;9.60;99.90
10431;DHT22;5262;59.958;17.726;2023-01-28T11:09:30;9.90;99.90
10431;DHT22;5262;59.958;17.726;2023-01-28T11:11:57;10.80;99.90
10431;DHT22;5262;59.958;17.726;2023-01-28T11:14:25;10.50;99.90
10431;DHT22;5262;59.958;17.726;2023-01-28T11:16:53;11.30;99.60
10431;DHT22;5262;59.958;17.726;2023-01-28T11:19:26;10.90;99.70
10431;DHT22;5262;59.958;17.726;2023-01-28T11:21:54;10.50;99.70
10431;DHT22;5262;59.958;17.726;2023-01-28T11:24:24;9.00;99.90
10431;DHT22;5262;59.958;17.726;2023-01-28T11:26:53;9.30;99.90
10431;DHT22;5262;59.958;17.726;2023-01-28T11:29:31;9.70;99.90
10431;DHT22;5262;59.958;17.726;2023-01-28T11:31:58;8.70;99.90
10431;DHT22;5262;59.958;17.726;2023-01-28T11:34:28;7.30;99.90
10431;DHT22;5262;59.958;17.726;2023-01-28T11:37:01;6.40;99.90
10431;DHT22;5262;59.958;17.726;2023-01-28T11:39:28;5.60;99.90
10431;DHT22;5262;59.958;17.726;2023-01-28T11:42:23;5.00;99.90
10431;DHT22;5262;59.958;17.726;2023-01-28T11:44:48;4.90;99.90
10431;DHT22;5262;59.958;17.726;2023-01-28T11:47:39;4.60;99.90
10431;DHT22;5262;59.958;17.726;2023-01-28T11:53:07;3.90;99.90
10431;DHT22;5262;59.958;17.726;2023-01-28T12:01:09;3.60;99.90
10431;DHT22;5262;59.958;17.726;2023-01-28T12:09:48;3.40;99.90
10431;DHT22;5262;59.958;17.726;2023-01-28T12:12:37;3.30;99.90
10431;DHT22;5262;59.958;17.726;2023-01-28T12:20:59;3.10;99.90
10431;DHT22;5262;59.958;17.726;2023-01-28T12:23:59;3.10;99.90
10431;DHT22;5262;59.958;17.726;2023-01-28T12:26:35;3.00;99.90
10431;DHT22;5262;59.958;17.726;2023-01-28T12:31:50;3.10;99.90
10431;DHT22;5262;59.958;17.726;2023-01-28T12:42:29;3.00;99.90
10431;DHT22;5262;59.958;17.726;2023-01-28T12:45:11;2.90;99.90
10431;DHT22;5262;59.958;17.726;2023-01-28T12:47:39;3.00;99.90
10431;DHT22;5262;59.958;17.726;2023-01-28T12:50:17;3.00;99.90
10431;DHT22;5262;59.958;17.726;2023-01-28T12:52:56;3.00;99.90
10431;DHT22;5262;59.958;17.726;2023-01-28T12:57:56;3.20;99.90
10431;DHT22;5262;59.958;17.726;2023-01-28T13:00:35;3.10;99.90
10431;DHT22;5262;59.958;17.726;2023-01-28T13:05:59;3.10;99.90
10431;DHT22;5262;59.958;17.726;2023-01-28T13:08:27;3.00;99.90
10431;DHT22;5262;59.958;17.726;2023-01-28T13:10:58;2.90;99.90
10431;DHT22;5262;59.958;17.726;2023-01-28T13:13:38;2.90;99.90
10431;DHT22;5262;59.958;17.726;2023-01-28T13:16:08;2.80;99.90
10431;DHT22;5262;59.958;17.726;2023-01-28T13:18:43;2.70;99.90
10431;DHT22;5262;59.958;17.726;2023-01-28T13:31:42;2.10;99.90
10431;DHT22;5262;59.958;17.726;2023-01-28T13:34:38;2.00;99.90
10431;DHT22;5262;59.958;17.726;2023-01-28T13:37:56;1.90;99.90
10431;DHT22;5262;59.958;17.726;2023-01-28T13:40:26;1.80;99.90
10431;DHT22;5262;59.958;17.726;2023-01-28T13:45:56;1.70;99.90
10431;DHT22;5262;59.958;17.726;2023-01-28T13:51:03;1.40;99.90
10431;DHT22;5262;59.958;17.726;2023-01-28T13:53:55;1.30;99.90
10431;DHT22;5262;59.958;17.726;2023-01-28T13:56:27;1.10;99.90
10431;DHT22;5262;59.958;17.726;2023-01-28T14:17:13;0.80;99.90
10431;DHT22;5262;59.958;17.726;2023-01-28T14:19:11;0.80;99.90
10431;DHT22;5262;59.958;17.726;2023-01-28T14:21:37;0.60;99.90
10431;DHT22;5262;59.958;17.726;2023-01-28T14:24:03;0.50;99.90
10431;DHT22;5262;59.958;17.726;2023-01-28T14:26:56;0.50;99.90
10431;DHT22;5262;59.958;17.726;2023-01-28T14:32:18;0.20;99.90
10431;DHT22;5262;59.958;17.726;2023-01-28T14:34:46;0.10;99.90
10431;DHT22;5262;59.958;17.726;2023-01-28T14:37:18;0.10;99.90
10431;DHT22;5262;59.958;17.726;2023-01-28T14:39:51;0.00;99.90
10431;DHT22;5262;59.958;17.726;2023-01-28T14:42:37;-0.20;99.90
10431;DHT22;5262;59.958;17.726;2023-01-28T14:48:00;-0.40;99.90
10431;DHT22;5262;59.958;17.726;2023-01-28T14:53:34;-0.70;99.90
10431;DHT22;5262;59.958;17.726;2023-01-28T14:58:38;-0.90;99.90
10431;DHT22;5262;59.958;17.726;2023-01-28T15:01:19;-0.90;99.90
10431;DHT22;5262;59.958;17.726;2023-01-28T15:03:46;-1.00;99.90
10431;DHT22;5262;59.958;17.726;2023-01-28T15:06:14;-1.00;99.90
10431;DHT22;5262;59.958;17.726;2023-01-28T15:08:40;-1.20;99.90
10431;DHT22;5262;59.958;17.726;2023-01-28T15:11:08;-1.20;99.90
10431;DHT22;5262;59.958;17.726;2023-01-28T15:13:37;-1.30;99.90
10431;DHT22;5262;59.958;17.726;2023-01-28T15:16:04;-1.30;99.90
10431;DHT22;5262;59.958;17.726;2023-01-28T15:18:36;-1.30;99.90
10431;DHT22;5262;59.958;17.726;2023-01-28T15:21:05;-1.20;99.90
10431;DHT22;5262;59.958;17.726;2023-01-28T15:23:40;-1.20;99.90
10431;DHT22;5262;59.958;17.726;2023-01-28T15:26:11;-1.10;99.90
10431;DHT22;5262;59.958;17.726;2023-01-28T15:28:39;-1.10;99.90
10431;DHT22;5262;59.958;17.726;2023-01-28T15:31:05;-1.20;99.90
10431;DHT22;5262;59.958;17.726;2023-01-28T15:33:31;-1.20;99.90
10431;DHT22;5262;59.958;17.726;2023-01-28T15:35:57;-1.10;99.90
10431;DHT22;5262;59.958;17.726;2023-01-28T15:38:26;-1.20;99.90
10431;DHT22;5262;59.958;17.726;2023-01-28T15:41:00;-1.20;99.90
10431;DHT22;5262;59.958;17.726;2023-01-28T15:43:29;-1.30;99.90
10431;DHT22;5262;59.958;17.726;2023-01-28T15:45:56;-1.30;99.90
10431;DHT22;5262;59.958;17.726;2023-01-28T15:48:31;-1.40;99.90
10431;DHT22;5262;59.958;17.726;2023-01-28T15:51:06;-1.40;99.90
10431;DHT22;5262;59.958;17.726;2023-01-28T15:53:35;-1.50;99.90
10431;DHT22;5262;59.958;17.726;2023-01-28T15:56:08;-1.50;99.90
10431;DHT22;5262;59.958;17.726;2023-01-28T15:58:34;-1.50;99.90
10431;DHT22;5262;59.958;17.726;2023-01-28T16:03:32;-1.60;99.90
10431;DHT22;5262;59.958;17.726;2023-01-28T16:06:04;-1.60;99.90
10431;DHT22;5262;59.958;17.726;2023-01-28T16:08:39;-1.60;99.90
10431;DHT22;5262;59.958;17.726;2023-01-28T16:11:07;-1.50;99.90
10431;DHT22;5262;59.958;17.726;2023-01-28T16:13:34;-1.50;99.90
10431;DHT22;5262;59.958;17.726;2023-01-28T16:16:02;-1.40;99.90
10431;DHT22;5262;59.958;17.726;2023-01-28T16:18:40;-1.40;99.90
10431;DHT22;5262;59.958;17.726;2023-01-28T16:21:10;-1.30;99.90
10431;DHT22;5262;59.958;17.726;2023-01-28T16:23:37;-1.30;99.90
10431;DHT22;5262;59.958;17.726;2023-01-28T16:26:06;-1.30;99.90
10431;DHT22;5262;59.958;17.726;2023-01-28T16:28:43;-1.30;99.90
10431;DHT22;5262;59.958;17.726;2023-01-28T16:31:10;-1.20;99.90
10431;DHT22;5262;59.958;17.726;2023-01-28T16:33:36;-1.20;99.90
10431;DHT22;5262;59.958;17.726;2023-01-28T16:36:01;-1.30;99.90
10431;DHT22;5262;59.958;17.726;2023-01-28T16:38:27;-1.40;99.90
10431;DHT22;5262;59.958;17.726;2023-01-28T16:40:53;-1.40;99.90
10431;DHT22;5262;59.958;17.726;2023-01-28T16:43:18;-1.50;99.90
10431;DHT22;5262;59.958;17.726;2023-01-28T16:45:44;-1.40;99.90
10431;DHT22;5262;59.958;17.726;2023-01-28T16:48:11;-1.50;99.90
10431;DHT22;5262;59.958;17.726;2023-01-28T16:50:41;-1.50;99.90
10431;DHT22;5262;59.958;17.726;2023-01-28T16:53:29;-1.50;99.90
10431;DHT22;5262;59.958;17.726;2023-01-28T16:55:57;-1.50;99.90
10431;DHT22;5262;59.958;17.726;2023-01-28T16:58:24;-1.40;99.90
10431;DHT22;5262;59.958;17.726;2023-01-28T17:00:50;-1.40;99.90
10431;DHT22;5262;59.958;17.726;2023-01-28T17:03:16;-1.40;99.90
10431;DHT22;5262;59.958;17.726;2023-01-28T17:05:41;-1.30;99.90
10431;DHT22;5262;59.958;17.726;2023-01-28T17:08:07;-1.40;99.90
10431;DHT22;5262;59.958;17.726;2023-01-28T17:10:33;-1.30;99.90
10431;DHT22;5262;59.958;17.726;2023-01-28T17:12:59;-1.40;99.90
10431;DHT22;5262;59.958;17.726;2023-01-28T17:15:24;-1.30;99.90
10431;DHT22;5262;59.958;17.726;2023-01-28T17:17:50;-1.30;99.90
10431;DHT22;5262;59.958;17.726;2023-01-28T17:20:18;-1.30;99.90
10431;DHT22;5262;59.958;17.726;2023-01-28T17:22:44;-1.30;99.90
10431;DHT22;5262;59.958;17.726;2023-01-28T17:25:10;-1.20;99.90
10431;DHT22;5262;59.958;17.726;2023-01-28T17:27:36;-1.30;99.90
10431;DHT22;5262;59.958;17.726;2023-01-28T17:30:02;-1.30;99.90
10431;DHT22;5262;59.958;17.726;2023-01-28T17:32:27;-1.30;99.90
10431;DHT22;5262;59.958;17.726;2023-01-28T17:34:53;-1.30;99.90
10431;DHT22;5262;59.958;17.726;2023-01-28T17:37:19;-1.40;99.90
10431;DHT22;5262;59.958;17.726;2023-01-28T17:39:44;-1.40;99.90
10431;DHT22;5262;59.958;17.726;2023-01-28T17:42:10;-1.40;99.90
10431;DHT22;5262;59.958;17.726;2023-01-28T17:44:35;-1.50;99.90
10431;DHT22;5262;59.958;17.726;2023-01-28T17:47:01;-1.40;99.90